Time;durP1;ratioP1;P1;durP2;ratioP2;P2;SDS_P1;SDS_P2;PMS_P1;PMS_P2;Temp;Humidity;BMP_temperature;BMP_pressure;BME280_temperature;BME280_humidity;BME280_pressure;Samples;Min_cycle;Max_cycle;Signal;HPM_P1;HPM_P2
2024/01/05 00:00:39;;;;;;;9.63;4.40;;;;;;;7.18;100.00;99853.81;6082507;19;20043;-69
2024/01/05 00:02:42;;;;;;;15.25;5.32;;;;;;;7.26;100.00;99845.66;6086275;19;20013;-70
2024/01/05 00:04:47;;;;;;;12.18;4.63;;;;;;;7.29;100.00;99831.63;6085992;19;20025;-70
2024/01/05 00:06:55;;;;;;;11.65;4.00;;;;;;;7.27;100.00;99836.91;6081766;19;20010;-70
2024/01/05 00:09:00;;;;;;;14.15;4.32;;;;;;;7.27;100.00;99829.09;6085315;19;20384;-69
2024/01/05 00:11:02;;;;;;;19.35;5.63;;;;;;;7.38;100.00;99833.84;6084641;19;20308;-69
2024/01/05 00:13:08;;;;;;;8.65;4.25;;;;;;;7.29;100.00;99831.63;6083820;19;20688;-72
2024/01/05 00:15:15;;;;;;;6.45;3.20;;;;;;;7.31;100.00;99833.25;6083393;19;20025;-71
2024/01/05 00:17:20;;;;;;;17.25;4.05;;;;;;;7.29;100.00;99832.47;6085036;19;20242;-72
2024/01/05 00:19:25;;;;;;;18.33;4.22;;;;;;;7.26;100.00;99829.97;6084003;19;20017;-72
2024/01/05 00:21:28;;;;;;;12.38;4.95;;;;;;;7.33;100.00;99828.81;6084367;19;20010;-71
2024/01/05 00:23:35;;;;;;;;;;;;;;;7.25;100.00;99823.91;6085527;19;20488;-71
2024/01/05 00:25:40;;;;;;;19.42;5.20;;;;;;;7.33;100.00;99822.75;6084675;19;19915;-71
2024/01/05 00:27:45;;;;;;;11.25;3.85;;;;;;;7.37;100.00;99822.53;6085118;19;20023;-71
2024/01/05 00:29:50;;;;;;;10.85;4.80;;;;;;;7.38;100.00;99824.22;6083354;19;20014;-71
2024/01/05 00:31:55;;;;;;;7.97;4.05;;;;;;;7.40;100.00;99814.56;6074995;19;20002;-70
2024/01/05 00:33:58;;;;;;;15.85;4.95;;;;;;;7.38;100.00;99811.16;6086635;19;20309;-70
2024/01/05 00:36:04;;;;;;;14.88;4.78;;;;;;;7.43;100.00;99803.97;6086988;19;20003;-72
2024/01/05 00:38:09;;;;;;;20.35;4.53;;;;;;;7.42;100.00;99806.63;6090320;19;20010;-71
2024/01/05 00:40:17;;;;;;;12.70;3.92;;;;;;;7.48;100.00;99799.38;6090747;19;20470;-71
2024/01/05 00:42:22;;;;;;;11.80;4.22;;;;;;;7.53;100.00;99793.97;6089460;19;20136;-71
2024/01/05 00:44:27;;;;;;;13.77;4.10;;;;;;;7.56;100.00;99798.22;6091199;19;20036;-72
2024/01/05 00:46:32;;;;;;;13.27;5.72;;;;;;;7.61;100.00;99799.69;6088728;19;20363;-72
2024/01/05 00:48:34;;;;;;;16.30;4.85;;;;;;;7.61;100.00;99790.97;6089383;19;20546;-70
2024/01/05 00:50:39;;;;;;;11.50;4.25;;;;;;;7.58;100.00;99785.88;6090542;19;20013;-71
2024/01/05 00:52:47;;;;;;;10.57;4.22;;;;;;;7.56;100.00;99785.97;6083080;19;20103;-71
2024/01/05 00:54:52;;;;;;;20.55;5.05;;;;;;;7.58;100.00;99780.66;6088476;19;20069;-71
2024/01/05 00:56:59;;;;;;;14.20;4.75;;;;;;;7.56;100.00;99782.53;6087213;19;20010;-71
2024/01/05 00:59:02;;;;;;;13.13;3.78;;;;;;;7.59;100.00;99777.16;6088359;19;20309;-69
2024/01/05 01:01:09;;;;;;;19.23;4.68;;;;;;;7.54;100.00;99774.72;6085806;19;20020;-69
2024/01/05 01:03:15;;;;;;;13.02;4.03;;;;;;;7.66;100.00;99768.09;6090188;19;20007;-70
2024/01/05 01:05:20;;;;;;;14.77;4.57;;;;;;;7.61;100.00;99767.44;6089696;19;20003;-71
2024/01/05 01:07:25;;;;;;;11.73;4.07;;;;;;;7.63;100.00;99768.22;6084711;19;20002;-70
2024/01/05 01:09:30;;;;;;;11.45;4.25;;;;;;;7.61;100.00;99765.72;6087352;19;20017;-69
2024/01/05 01:11:35;;;;;;;16.13;3.97;;;;;;;7.65;100.00;99767.25;6087966;19;20010;-70
2024/01/05 01:13:43;;;;;;;10.40;3.90;;;;;;;7.61;100.00;99757.00;6089328;19;20038;-70
2024/01/05 01:15:48;;;;;;;20.60;5.13;;;;;;;7.61;100.00;99752.63;6088411;19;20579;-69
2024/01/05 01:17:53;;;;;;;9.65;3.75;;;;;;;7.65;100.00;99748.94;6087107;19;19998;-69
2024/01/05 01:19:59;;;;;;;16.38;4.85;;;;;;;7.70;100.00;99748.75;6088848;19;20019;-70
2024/01/05 01:22:01;;;;;;;7.95;3.90;;;;;;;7.65;100.00;99742.88;6087079;19;20382;-70
2024/01/05 01:24:06;;;;;;;8.68;4.22;;;;;;;7.66;100.00;99734.09;6083462;19;20130;-71
2024/01/05 01:26:12;;;;;;;14.20;4.18;;;;;;;7.65;100.00;99730.63;6085634;19;20074;-69
2024/01/05 01:28:17;;;;;;;12.05;3.92;;;;;;;7.74;100.00;99718.06;6088876;19;20024;-70
2024/01/05 01:30:24;;;;;;;12.52;3.88;;;;;;;7.70;100.00;99723.44;6086557;19;20335;-69
2024/01/05 01:32:30;;;;;;;20.48;4.65;;;;;;;7.72;100.00;99718.16;6085224;19;20019;-69
2024/01/05 01:34:35;;;;;;;7.78;3.25;;;;;;;7.73;100.00;99719.81;6085826;19;20466;-70
2024/01/05 01:36:40;;;;;;;10.13;4.90;;;;;;;7.73;100.00;99724.22;6087142;19;20013;-71
2024/01/05 01:38:45;;;;;;;11.90;3.50;;;;;;;7.75;100.00;99706.69;6086934;19;20010;-71
2024/01/05 01:40:53;;;;;;;10.90;4.10;;;;;;;7.79;100.00;99705.59;6080236;19;20031;-71
2024/01/05 01:42:58;;;;;;;8.15;3.25;;;;;;;7.74;100.00;99704.97;6085646;19;20005;-71
2024/01/05 01:45:03;;;;;;;18.85;5.07;;;;;;;7.75;100.00;99701.47;6083520;19;20468;-71
2024/01/05 01:47:10;;;;;;;22.88;4.15;;;;;;;7.80;100.00;99696.88;6086803;19;20011;-71
2024/01/05 01:49:17;;;;;;;14.55;4.28;;;;;;;7.84;100.00;99687.94;6086228;19;20016;-70
2024/01/05 01:51:21;;;;;;;12.00;3.25;;;;;;;7.89;100.00;99691.19;6084910;19;20015;-69
2024/01/05 01:53:29;;;;;;;8.60;3.63;;;;;;;7.90;100.00;99683.28;6081265;19;20007;-69
2024/01/05 01:55:34;;;;;;;8.00;3.05;;;;;;;7.87;100.00;99683.44;6084629;19;20439;-70
2024/01/05 01:57:39;;;;;;;8.50;3.25;;;;;;;7.91;100.00;99678.88;6080442;19;20452;-70
2024/01/05 01:59:43;;;;;;;10.75;3.50;;;;;;;7.92;100.00;99667.47;6083932;19;20010;-69
2024/01/05 02:01:49;;;;;;;22.08;4.28;;;;;;;7.96;100.00;99665.59;6085867;19;20031;-71
2024/01/05 02:03:57;;;;;;;12.20;3.30;;;;;;;7.98;100.00;99663.72;6086661;19;20045;-71
2024/01/05 02:06:02;;;;;;;7.95;3.13;;;;;;;7.95;100.00;99658.66;6087015;19;20521;-71
2024/01/05 02:08:09;;;;;;;6.18;3.08;;;;;;;7.94;100.00;99643.88;6086298;19;20431;-70
2024/01/05 02:10:15;;;;;;;7.93;3.30;;;;;;;7.97;100.00;99646.34;6085999;19;20515;-69
2024/01/05 02:12:20;;;;;;;8.32;2.92;;;;;;;7.99;100.00;99642.72;6085669;19;20682;-71
2024/01/05 02:14:25;;;;;;;8.10;3.28;;;;;;;7.90;100.00;99641.41;6084529;19;20008;-69
2024/01/05 02:16:30;;;;;;;13.45;3.65;;;;;;;7.97;100.00;99635.88;6083309;19;20015;-70
2024/01/05 02:18:35;;;;;;;12.60;4.15;;;;;;;7.96;100.00;99629.81;6086543;19;20014;-71
2024/01/05 02:20:44;;;;;;;11.18;3.08;;;;;;;7.97;100.00;99630.66;6087996;19;20594;-70
2024/01/05 02:23:02;;;;;;;10.25;2.88;;;;;;;7.98;100.00;99632.31;6084503;19;20617;-71
2024/01/05 02:25:10;;;;;;;13.43;4.07;;;;;;;7.99;100.00;99629.66;6085116;19;20031;-71
2024/01/05 02:27:16;;;;;;;4.53;3.00;;;;;;;8.01;100.00;99621.75;6086827;19;20222;-70
2024/01/05 02:29:21;;;;;;;9.05;2.60;;;;;;;8.04;100.00;99621.59;6085725;19;20019;-71
2024/01/05 02:31:27;;;;;;;9.68;3.30;;;;;;;8.07;100.00;99617.03;6084236;19;20006;-71
2024/01/05 02:33:32;;;;;;;10.70;2.90;;;;;;;8.02;100.00;99615.56;6083902;19;20100;-69
2024/01/05 02:35:38;;;;;;;13.88;3.22;;;;;;;8.07;100.00;99613.56;6083770;19;20011;-70
2024/01/05 02:37:42;;;;;;;8.93;2.95;;;;;;;8.07;100.00;99606.56;6084766;19;20011;-69
2024/01/05 02:39:47;;;;;;;7.57;2.55;;;;;;;8.08;100.00;99600.44;6086248;19;20007;-71
2024/01/05 02:41:55;;;;;;;24.10;3.22;;;;;;;8.04;100.00;99598.03;6082074;19;20010;-72
2024/01/05 02:44:00;;;;;;;9.15;2.70;;;;;;;8.07;100.00;99590.88;6085553;19;20007;-70
2024/01/05 02:46:06;;;;;;;10.77;2.92;;;;;;;8.07;100.00;99590.88;6086115;19;20003;-70
2024/01/05 02:48:10;;;;;;;11.45;2.60;;;;;;;8.11;100.00;99587.19;6083410;19;20007;-71
2024/01/05 02:50:15;;;;;;;10.25;2.88;;;;;;;8.11;100.00;99586.34;6083638;19;20768;-71
2024/01/05 02:52:20;;;;;;;6.25;2.55;;;;;;;8.07;100.00;99583.03;6080279;19;20016;-71
2024/01/05 02:54:25;;;;;;;9.43;2.90;;;;;;;8.11;100.00;99579.34;6084235;19;20471;-72
2024/01/05 02:56:33;;;;;;;4.47;2.13;;;;;;;8.14;100.00;99575.72;6083356;19;20015;-69
2024/01/05 02:58:41;;;;;;;10.80;2.38;;;;;;;8.18;100.00;99573.78;6084071;19;20557;-71
2024/01/05 03:00:46;;;;;;;5.53;2.85;;;;;;;8.14;100.00;99573.09;6083542;19;20025;-71
2024/01/05 03:02:51;;;;;;;6.30;2.60;;;;;;;8.19;100.00;99565.88;6084552;19;20106;-70
2024/01/05 03:04:56;;;;;;;5.13;2.20;;;;;;;8.17;100.00;99564.25;6083285;19;20038;-70
2024/01/05 03:07:02;;;;;;;9.73;2.65;;;;;;;8.10;100.00;99568.94;6084231;19;20050;-71
2024/01/05 03:09:08;;;;;;;12.63;3.13;;;;;;;8.16;100.00;99562.53;6082809;19;20006;-71
2024/01/05 03:11:14;;;;;;;13.20;2.70;;;;;;;8.16;100.00;99557.31;6083865;19;20007;-71
2024/01/05 03:13:19;;;;;;;8.52;2.67;;;;;;;8.14;100.00;99555.63;6083790;19;20436;-73
2024/01/05 03:15:26;;;;;;;4.22;2.78;;;;;;;8.17;100.00;99544.16;6084083;19;20003;-71
2024/01/05 03:17:31;;;;;;;9.32;2.85;;;;;;;8.15;100.00;99546.00;6085276;19;20257;-69
2024/01/05 03:19:36;;;;;;;10.90;2.97;;;;;;;8.13;100.00;99537.38;6083411;19;20018;-70
2024/01/05 03:21:42;;;;;;;8.52;3.00;;;;;;;8.17;100.00;99538.94;6082850;19;20538;-71
2024/01/05 03:23:47;;;;;;;4.28;2.17;;;;;;;8.22;100.00;99538.69;6083664;19;20035;-71
2024/01/05 03:25:52;;;;;;;7.30;3.03;;;;;;;8.21;100.00;99534.38;6084655;19;20002;-71
2024/01/05 03:27:57;;;;;;;5.80;2.38;;;;;;;8.20;100.00;99523.06;6082803;19;20010;-70
2024/01/05 03:30:02;;;;;;;14.27;2.42;;;;;;;8.19;100.00;99516.16;6083562;19;20006;-71
2024/01/05 03:32:11;;;;;;;4.50;3.03;;;;;;;8.18;100.00;99514.44;6084226;19;20339;-70
2024/01/05 03:34:17;;;;;;;8.98;3.38;;;;;;;8.12;100.00;99520.00;6084084;19;20029;-72
2024/01/05 03:36:22;;;;;;;7.10;2.00;;;;;;;8.14;100.00;99518.16;6083900;19;20376;-72
2024/01/05 03:38:27;;;;;;;10.75;3.45;;;;;;;8.11;100.00;99521.78;6084307;19;20121;-71
2024/01/05 03:40:32;;;;;;;8.50;2.22;;;;;;;8.16;100.00;99516.28;6082229;19;20018;-70
2024/01/05 03:42:37;;;;;;;7.80;2.70;;;;;;;8.18;100.00;99503.97;6082712;19;20037;-71
2024/01/05 03:44:42;;;;;;;6.20;2.30;;;;;;;8.10;100.00;99495.69;6085978;19;20041;-71
2024/01/05 03:46:47;;;;;;;6.75;2.58;;;;;;;8.09;100.00;99500.06;6083299;19;20086;-72
2024/01/05 03:48:55;;;;;;;7.57;2.60;;;;;;;8.00;100.00;99492.69;6083905;19;20023;-72
2024/01/05 03:51:00;;;;;;;9.10;2.58;;;;;;;7.96;100.00;99485.94;6082583;19;20011;-70
2024/01/05 03:53:06;;;;;;;6.00;1.98;;;;;;;7.89;100.00;99487.16;6078410;19;20010;-72
2024/01/05 03:55:08;;;;;;;6.85;2.33;;;;;;;7.93;100.00;99490.50;6085215;19;20015;-70
2024/01/05 03:57:13;;;;;;;4.75;2.13;;;;;;;7.87;100.00;99482.03;6081037;19;20429;-71
2024/01/05 03:59:18;;;;;;;7.40;2.70;;;;;;;7.89;100.00;99477.53;6080162;19;20640;-71
2024/01/05 04:01:23;;;;;;;4.82;2.17;;;;;;;7.88;100.00;99473.25;6082923;19;20538;-71
2024/01/05 04:03:28;;;;;;;10.02;2.60;;;;;;;7.88;100.00;99467.19;6083174;19;20007;-71
2024/01/05 04:05:36;;;;;;;8.18;2.97;;;;;;;7.85;100.00;99462.09;6078146;19;20010;-70
2024/01/05 04:07:41;;;;;;;7.03;2.17;;;;;;;7.85;100.00;99462.09;6084663;19;20011;-69
2024/01/05 04:09:48;;;;;;;7.30;2.38;;;;;;;7.90;100.00;99460.09;6080851;19;20014;-70
2024/01/05 04:11:54;;;;;;;19.55;3.20;;;;;;;7.93;100.00;99451.25;6081582;19;20007;-70
2024/01/05 04:13:57;;;;;;;6.82;2.20;;;;;;;7.91;100.00;99444.31;6082587;19;20037;-70
2024/01/05 04:16:02;;;;;;;;;;;;;;;7.94;100.00;99443.31;6083042;19;20118;-69
2024/01/05 04:18:07;;;;;;;3.30;1.83;;;;;;;7.97;100.00;99444.91;6081819;19;20236;-69
2024/01/05 04:20:14;;;;;;;9.57;2.05;;;;;;;7.95;100.00;99438.91;6081632;19;20024;-70
2024/01/05 04:22:22;;;;;;;13.90;3.35;;;;;;;8.00;100.00;99442.13;6082935;19;20082;-70
2024/01/05 04:24:27;;;;;;;4.05;1.60;;;;;;;7.96;100.00;99431.00;6082082;19;20026;-70
2024/01/05 04:26:32;;;;;;;6.75;2.47;;;;;;;8.00;100.00;99424.66;6080901;19;20491;-71
2024/01/05 04:28:37;;;;;;;6.00;2.03;;;;;;;7.96;100.00;99415.31;6079835;19;20036;-72
2024/01/05 04:30:43;;;;;;;7.03;1.83;;;;;;;7.95;100.00;99429.28;6081576;19;20011;-72
2024/01/05 04:32:48;;;;;;;8.48;2.53;;;;;;;7.97;100.00;99424.00;6081078;19;20011;-71
2024/01/05 04:34:53;;;;;;;9.30;2.50;;;;;;;7.89;100.00;99427.84;6079320;19;20692;-71
2024/01/05 04:36:58;;;;;;;6.75;1.90;;;;;;;7.88;100.00;99422.72;6082666;19;20018;-69
2024/01/05 04:39:09;;;;;;;6.20;1.90;;;;;;;7.87;100.00;99421.00;6082433;19;20495;-72
2024/01/05 04:41:13;;;;;;;9.00;2.30;;;;;;;7.88;100.00;99415.72;6083403;19;20007;-69
2024/01/05 04:43:19;;;;;;;13.30;3.00;;;;;;;7.94;100.00;99413.69;6080038;19;20006;-69
2024/01/05 04:45:26;;;;;;;3.25;2.30;;;;;;;7.92;100.00;99413.75;6082813;19;20045;-71
2024/01/05 04:47:34;;;;;;;3.28;1.70;;;;;;;7.88;100.00;99410.47;6083526;19;20010;-72
2024/01/05 04:49:39;;;;;;;4.65;1.83;;;;;;;7.82;100.00;99417.78;6081729;19;20038;-71
2024/01/05 04:51:44;;;;;;;8.70;2.17;;;;;;;7.79;100.00;99408.31;6081229;19;20010;-70
2024/01/05 04:53:50;;;;;;;7.45;1.80;;;;;;;7.75;100.00;99413.81;6079866;19;20022;-70
2024/01/05 04:55:55;;;;;;;4.63;2.33;;;;;;;7.76;100.00;99402.41;6083349;19;20511;-72
2024/01/05 04:58:00;;;;;;;7.35;2.28;;;;;;;7.75;100.00;99417.28;6084581;19;20082;-71
2024/01/05 05:00:06;;;;;;;4.03;1.85;;;;;;;7.76;100.00;99412.88;6076163;19;20002;-71
2024/01/05 05:02:11;;;;;;;4.13;2.35;;;;;;;7.70;100.00;99406.19;6081563;19;20015;-71
2024/01/05 05:04:18;;;;;;;6.15;2.40;;;;;;;7.67;100.00;99393.28;6080863;19;20030;-71
2024/01/05 05:06:22;;;;;;;9.02;2.55;;;;;;;7.64;100.00;99393.47;6078406;19;20011;-71
2024/01/05 05:08:27;;;;;;;5.90;2.35;;;;;;;7.63;100.00;99423.13;6082204;19;20007;-71
2024/01/05 05:10:32;;;;;;;9.98;2.25;;;;;;;7.61;100.00;99435.41;6076062;19;20003;-72
2024/01/05 05:12:40;;;;;;;3.85;2.15;;;;;;;7.61;100.00;99424.97;6081839;19;20015;-71
2024/01/05 05:14:45;;;;;;;3.85;1.85;;;;;;;7.47;100.00;99412.59;6078854;19;20010;-71
2024/01/05 05:16:51;;;;;;;2.72;1.55;;;;;;;7.39;100.00;99412.97;6080628;19;20010;-71
2024/01/05 05:18:53;;;;;;;2.53;1.73;;;;;;;7.30;100.00;99405.63;6081376;19;20583;-70
2024/01/05 05:20:59;;;;;;;2.55;1.63;;;;;;;7.20;100.00;99389.53;6085142;19;20613;-70
2024/01/05 05:23:04;;;;;;;6.45;1.42;;;;;;;7.16;100.00;99384.53;6084219;19;20007;-70
2024/01/05 05:25:10;;;;;;;1.20;1.10;;;;;;;7.04;100.00;99384.25;6085115;19;20035;-71
2024/01/05 05:27:15;;;;;;;1.27;1.15;;;;;;;7.09;100.00;99396.25;6086606;19;20578;-70
2024/01/05 05:29:23;;;;;;;1.45;1.08;;;;;;;7.01;100.00;99384.38;6087302;19;20407;-70
2024/01/05 05:31:28;;;;;;;1.08;1.00;;;;;;;7.00;100.00;99387.94;6085316;19;20039;-70
2024/01/05 05:33:33;;;;;;;1.73;1.60;;;;;;;7.00;100.00;99376.63;6087891;19;20831;-70
2024/01/05 05:35:38;;;;;;;3.00;1.40;;;;;;;6.99;100.00;99383.63;6083927;19;20070;-70
2024/01/05 05:37:43;;;;;;;3.28;1.05;;;;;;;7.06;100.00;99378.06;6087764;19;20007;-71
2024/01/05 05:39:48;;;;;;;3.08;0.98;;;;;;;7.04;100.00;99381.63;6086631;19;20006;-70
2024/01/05 05:41:54;;;;;;;0.90;0.90;;;;;;;7.07;100.00;99380.63;6086495;19;20017;-70
2024/01/05 05:43:59;;;;;;;1.48;1.20;;;;;;;7.05;100.00;99385.06;6087211;19;20350;-70
2024/01/05 05:46:07;;;;;;;0.95;0.95;;;;;;;7.02;100.00;99380.84;6087882;19;20073;-70
2024/01/05 05:48:14;;;;;;;3.17;1.25;;;;;;;7.06;100.00;99380.69;6087153;19;20020;-70
2024/01/05 05:50:20;;;;;;;3.05;1.20;;;;;;;7.01;100.00;99386.16;6086226;19;20439;-69
2024/01/05 05:52:25;;;;;;;1.13;0.90;;;;;;;7.04;100.00;99379.00;6084651;19;20889;-71
2024/01/05 05:54:33;;;;;;;3.80;1.08;;;;;;;6.99;100.00;99386.22;6086049;19;20007;-71
2024/01/05 05:56:38;;;;;;;1.65;0.95;;;;;;;7.07;100.00;99382.41;6086936;19;20011;-69
2024/01/05 05:58:46;;;;;;;1.67;1.20;;;;;;;7.04;100.00;99383.41;6077983;19;20010;-68
2024/01/05 06:00:51;;;;;;;2.50;0.95;;;;;;;6.99;100.00;99385.38;6083864;19;20011;-69
2024/01/05 06:02:59;;;;;;;1.65;0.90;;;;;;;7.01;100.00;99384.38;6085242;19;20014;-69
2024/01/05 06:05:04;;;;;;;3.22;1.10;;;;;;;7.00;100.00;99387.06;6087635;19;20008;-70
2024/01/05 06:07:09;;;;;;;1.17;1.08;;;;;;;6.95;100.00;99382.09;6087003;19;20015;-71
2024/01/05 06:09:14;;;;;;;1.15;1.15;;;;;;;6.97;100.00;99380.22;6087922;19;20468;-69
2024/01/05 06:11:21;;;;;;;1.38;1.27;;;;;;;6.97;100.00;99387.22;6086125;19;20026;-73
2024/01/05 06:13:26;;;;;;;2.30;1.02;;;;;;;6.94;100.00;99385.59;6086832;19;20015;-70
2024/01/05 06:15:31;;;;;;;1.33;1.27;;;;;;;6.87;100.00;99385.97;6086191;19;20002;-70
2024/01/05 06:17:36;;;;;;;1.77;1.13;;;;;;;6.80;100.00;99380.22;6087825;19;20043;-70
2024/01/05 06:19:44;;;;;;;1.20;1.00;;;;;;;6.80;100.00;99383.66;6090367;19;20027;-70
2024/01/05 06:21:49;;;;;;;1.05;1.00;;;;;;;6.74;100.00;99381.38;6084306;19;20359;-71
2024/01/05 06:23:54;;;;;;;1.08;1.08;;;;;;;6.77;100.00;99382.97;6081991;19;20560;-69
2024/01/05 06:25:59;;;;;;;1.95;1.52;;;;;;;6.76;100.00;99394.31;6087435;19;20546;-70
2024/01/05 06:28:04;;;;;;;1.58;1.10;;;;;;;6.71;100.00;99378.03;6086958;19;20006;-70
2024/01/05 06:30:11;;;;;;;1.10;0.93;;;;;;;6.67;100.00;99389.56;6084583;19;20010;-69
2024/01/05 06:32:16;;;;;;;2.13;0.93;;;;;;;6.61;100.00;99395.94;6082296;19;20321;-69
2024/01/05 06:34:22;;;;;;;0.98;0.98;;;;;;;6.57;100.00;99384.75;6085928;19;20016;-71
2024/01/05 06:36:30;;;;;;;0.98;0.98;;;;;;;6.50;100.00;99387.72;6086339;19;20011;-71
2024/01/05 06:38:35;;;;;;;1.00;1.00;;;;;;;6.49;100.00;99386.88;6085222;19;20081;-73
2024/01/05 06:40:40;;;;;;;5.97;1.40;;;;;;;6.39;100.00;99380.41;6085141;19;20007;-69
2024/01/05 06:42:45;;;;;;;2.75;1.10;;;;;;;6.35;100.00;99386.72;6085066;19;20446;-71
2024/01/05 06:44:50;;;;;;;1.20;1.20;;;;;;;6.25;100.00;99383.66;6088870;19;20014;-71
2024/01/05 06:46:55;;;;;;;1.17;1.00;;;;;;;6.30;100.00;99384.31;6087736;19;20482;-69
2024/01/05 06:48:57;;;;;;;1.77;1.40;;;;;;;6.22;100.00;99385.59;6081849;19;20114;-70
2024/01/05 06:51:03;;;;;;;;;;;;;;;6.18;100.00;99371.81;6083670;19;20585;-70
2024/01/05 06:53:12;;;;;;;4.20;1.70;;;;;;;6.21;100.00;99371.66;6080663;19;19914;-70
2024/01/05 06:55:17;;;;;;;1.55;1.30;;;;;;;6.18;100.00;99368.38;6084842;19;20030;-69
2024/01/05 06:57:22;;;;;;;4.10;2.13;;;;;;;6.20;100.00;99374.38;6085615;19;20412;-73
2024/01/05 06:59:26;;;;;;;2.88;1.60;;;;;;;6.15;100.00;99364.97;6084454;19;20014;-72
2024/01/05 07:01:32;;;;;;;1.90;1.52;;;;;;;6.18;100.00;99360.53;6084962;19;20074;-71
2024/01/05 07:03:37;;;;;;;5.60;1.95;;;;;;;6.12;100.00;99356.47;6084233;19;20021;-70
2024/01/05 07:05:42;;;;;;;3.70;2.00;;;;;;;6.08;100.00;99365.31;6081746;19;20027;-69
2024/01/05 07:07:47;;;;;;;2.28;1.95;;;;;;;6.06;100.00;99365.41;6083043;19;20019;-70
2024/01/05 07:09:55;;;;;;;4.30;2.17;;;;;;;6.07;100.00;99361.88;6085345;19;20006;-70
2024/01/05 07:12:00;;;;;;;11.38;2.33;;;;;;;6.08;100.00;99357.50;6083862;19;20014;-70
2024/01/05 07:14:05;;;;;;;4.78;1.80;;;;;;;6.13;100.00;99359.00;6084287;19;20010;-70
2024/01/05 07:16:17;;;;;;;3.13;2.00;;;;;;;6.05;100.00;99368.91;6084787;19;20014;-71
2024/01/05 07:18:23;;;;;;;8.00;2.17;;;;;;;6.02;100.00;99361.25;6084388;19;20020;-72
2024/01/05 07:20:29;;;;;;;3.67;2.25;;;;;;;6.02;100.00;99356.03;6083658;19;20705;-71
2024/01/05 07:22:34;;;;;;;3.85;2.42;;;;;;;5.96;100.00;99366.75;6078663;19;20025;-70
2024/01/05 07:24:38;;;;;;;3.80;2.05;;;;;;;5.97;100.00;99367.59;6083987;19;20023;-70
2024/01/05 07:26:46;;;;;;;4.40;2.35;;;;;;;6.05;100.00;99366.31;6084641;19;20010;-71
2024/01/05 07:28:49;;;;;;;3.47;2.35;;;;;;;5.91;100.00;99364.31;6080256;19;20490;-71
2024/01/05 07:30:54;;;;;;;3.88;2.17;;;;;;;5.92;100.00;99355.59;6086335;19;20022;-72
2024/01/05 07:32:57;;;;;;;4.50;2.53;;;;;;;5.84;100.00;99365.47;6084294;19;20011;-71
2024/01/05 07:35:03;;;;;;;3.85;2.30;;;;;;;5.82;100.00;99361.25;6083299;19;20015;-72
2024/01/05 07:37:08;;;;;;;4.60;2.47;;;;;;;5.78;100.00;99360.56;6083537;19;20021;-70
2024/01/05 07:39:15;;;;;;;1.85;1.67;;;;;;;5.80;100.00;99357.88;6083463;19;20022;-70
2024/01/05 07:41:21;;;;;;;2.10;1.98;;;;;;;5.81;100.00;99360.41;6083629;19;20442;-70
2024/01/05 07:43:29;;;;;;;3.45;2.30;;;;;;;5.83;100.00;99353.38;6078908;19;20002;-70
2024/01/05 07:45:34;;;;;;;2.55;1.83;;;;;;;5.78;100.00;99351.91;6083170;19;20019;-71
2024/01/05 07:47:39;;;;;;;3.83;2.33;;;;;;;5.79;100.00;99356.19;6084033;19;20014;-71
2024/01/05 07:49:41;;;;;;;4.15;2.42;;;;;;;5.81;100.00;99360.41;6080558;19;20530;-71
2024/01/05 07:51:46;;;;;;;3.00;2.22;;;;;;;5.78;100.00;99352.72;6084070;19;20015;-70
2024/01/05 07:53:54;;;;;;;4.88;2.42;;;;;;;5.80;100.00;99350.91;6082614;19;20038;-72
2024/01/05 07:56:02;;;;;;;6.15;2.47;;;;;;;5.73;100.00;99354.69;6086777;19;20363;-73
2024/01/05 07:58:07;;;;;;;3.95;2.22;;;;;;;5.71;100.00;99357.38;6082921;19;20786;-72
2024/01/05 08:00:16;;;;;;;5.25;2.60;;;;;;;5.69;100.00;99342.72;6074192;19;20003;-70
2024/01/05 08:02:22;;;;;;;4.35;2.58;;;;;;;5.76;100.00;99348.50;6081566;19;20447;-70
2024/01/05 08:04:27;;;;;;;6.68;3.00;;;;;;;5.73;100.00;99341.66;6083037;19;20010;-71
2024/01/05 08:06:29;;;;;;;5.53;2.88;;;;;;;5.68;100.00;99341.03;6082157;19;20007;-70
2024/01/05 08:08:34;;;;;;;4.93;2.35;;;;;;;5.73;100.00;99328.63;6083397;19;20090;-69
2024/01/05 08:10:39;;;;;;;5.60;2.58;;;;;;;5.72;100.00;99335.63;6083193;19;20041;-71
2024/01/05 08:12:44;;;;;;;4.03;2.50;;;;;;;5.70;100.00;99339.19;6080400;19;20614;-70
2024/01/05 08:14:50;;;;;;;4.57;2.45;;;;;;;5.68;100.00;99331.44;6083283;19;20511;-72
2024/01/05 08:16:58;;;;;;;4.95;2.47;;;;;;;5.70;100.00;99340.03;6083619;19;20480;-70
2024/01/05 08:19:03;;;;;;;5.15;2.80;;;;;;;5.70;100.00;99334.00;6077959;19;20006;-69
2024/01/05 08:21:08;;;;;;;4.65;2.60;;;;;;;5.69;100.00;99324.50;6085183;19;20500;-71
2024/01/05 08:23:14;;;;;;;4.47;2.20;;;;;;;5.73;100.00;99334.69;6086055;19;20038;-71
2024/01/05 08:25:19;;;;;;;6.40;3.00;;;;;;;5.82;100.00;99333.44;6083938;19;20035;-69
2024/01/05 08:27:26;;;;;;;3.58;2.47;;;;;;;5.82;100.00;99319.53;6081240;19;20014;-70
2024/01/05 08:29:31;;;;;;;4.63;2.60;;;;;;;5.80;100.00;99331.81;6082119;19;20022;-70
2024/01/05 08:31:36;;;;;;;6.50;2.85;;;;;;;5.81;100.00;99334.34;6106493;19;20474;-73
2024/01/05 08:33:41;;;;;;;7.18;3.53;;;;;;;5.86;100.00;99319.34;6045968;19;20014;-71
2024/01/05 08:35:47;;;;;;;9.77;3.75;;;;;;;5.80;100.00;99324.00;6104186;19;20010;-72
2024/01/05 08:37:50;;;;;;;6.45;3.08;;;;;;;5.82;100.00;99328.22;6084392;19;20011;-71
2024/01/05 08:39:55;;;;;;;8.07;3.65;;;;;;;5.82;100.00;99327.38;6082338;19;20527;-72
2024/01/05 08:42:00;;;;;;;7.43;3.55;;;;;;;5.87;100.00;99325.41;6083421;19;20034;-71
2024/01/05 08:44:05;;;;;;;8.50;4.18;;;;;;;5.88;100.00;99316.69;6083907;19;20015;-72
2024/01/05 08:46:10;;;;;;;10.48;4.15;;;;;;;5.88;100.00;99314.06;6082862;19;20030;-71
2024/01/05 08:48:16;;;;;;;10.43;4.80;;;;;;;5.92;100.00;99318.22;6084478;19;20006;-70
2024/01/05 08:50:24;;;;;;;8.68;4.32;;;;;;;5.91;100.00;99321.75;6082769;19;20447;-71
2024/01/05 08:52:29;;;;;;;10.50;4.47;;;;;;;5.92;100.00;99318.22;6078567;19;21349;-72
2024/01/05 08:54:34;;;;;;;9.52;4.13;;;;;;;5.93;100.00;99318.19;6085673;19;20039;-72
2024/01/05 08:56:39;;;;;;;8.00;4.53;;;;;;;6.00;100.00;99316.13;6090821;19;20023;-72
2024/01/05 08:58:44;;;;;;;11.35;5.65;;;;;;;5.99;100.00;99318.81;6091104;19;20007;-72
2024/01/05 09:00:49;;;;;;;8.10;3.83;;;;;;;6.02;100.00;99313.47;6090039;19;20015;-71
2024/01/05 09:02:55;;;;;;;10.98;5.57;;;;;;;6.00;100.00;99318.72;6089217;19;20079;-71
2024/01/05 09:05:00;;;;;;;8.38;4.97;;;;;;;6.02;100.00;99326.50;6085459;19;20459;-70
2024/01/05 09:07:08;;;;;;;17.00;4.45;;;;;;;6.06;100.00;99320.25;6088257;19;20534;-72
2024/01/05 09:09:13;;;;;;;10.60;4.93;;;;;;;6.03;100.00;99309.94;6090236;19;20604;-70
2024/01/05 09:11:18;;;;;;;10.95;5.72;;;;;;;6.03;100.00;99313.41;6091297;19;20019;-70
2024/01/05 09:13:23;;;;;;;8.73;5.25;;;;;;;6.08;100.00;99315.78;6087108;19;20085;-71
2024/01/05 09:15:26;;;;;;;11.70;5.20;;;;;;;6.07;100.00;99308.88;6088502;19;20007;-71
2024/01/05 09:17:31;;;;;;;10.88;5.47;;;;;;;6.10;100.00;99320.00;6090352;19;20673;-70
2024/01/05 09:19:36;;;;;;;10.45;4.57;;;;;;;6.10;100.00;99314.78;6090608;19;20026;-71
2024/01/05 09:21:41;;;;;;;9.73;5.03;;;;;;;6.13;100.00;99314.66;6088039;19;20050;-70
2024/01/05 09:23:49;;;;;;;12.13;4.82;;;;;;;6.15;100.00;99323.25;6089488;19;20078;-70
2024/01/05 09:25:52;;;;;;;10.45;5.72;;;;;;;6.15;100.00;99309.38;6086357;19;20026;-72
2024/01/05 09:27:57;;;;;;;9.75;4.93;;;;;;;6.19;100.00;99325.69;6080856;19;20010;-71
2024/01/05 09:30:08;;;;;;;14.18;5.43;;;;;;;6.23;100.00;99328.09;6074862;19;20116;-72
2024/01/05 09:32:18;;;;;;;9.18;4.78;;;;;;;6.24;100.00;99327.22;6088971;19;20508;-73
2024/01/05 09:34:23;;;;;;;11.80;5.88;;;;;;;6.25;100.00;99331.50;6088975;19;20006;-71
2024/01/05 09:36:29;;;;;;;12.70;5.35;;;;;;;6.31;100.00;99328.59;6087227;19;20031;-72
2024/01/05 09:38:32;;;;;;;9.63;4.57;;;;;;;6.34;100.00;99335.44;6084306;19;20017;-71
2024/01/05 09:40:40;;;;;;;11.43;5.30;;;;;;;6.34;100.00;99319.78;6086369;19;20002;-69
2024/01/05 09:42:51;;;;;;;11.40;4.93;;;;;;;6.45;100.00;99330.56;6084502;19;20395;-70
2024/01/05 09:44:58;;;;;;;10.82;5.53;;;;;;;6.55;100.00;99325.72;6086095;19;20645;-70
2024/01/05 09:47:04;;;;;;;10.57;4.15;;;;;;;6.57;100.00;99326.50;6086748;19;20038;-70
2024/01/05 09:49:09;;;;;;;12.55;4.85;;;;;;;6.42;100.00;99329.84;6085329;19;20011;-70